createdAt,value
2023-09-29T00:00:18.520Z,11.98
2023-09-29T00:02:46.866Z,12.06
2023-09-29T00:05:15.464Z,12.11
2023-09-29T00:07:44.020Z,12.12
2023-09-29T00:10:14.528Z,12.07
2023-09-29T00:12:43.176Z,12.07
2023-09-29T00:15:10.370Z,12.06
2023-09-29T00:17:37.557Z,12.00
2023-09-29T00:20:21.103Z,11.99
2023-09-29T00:22:48.227Z,11.94
2023-09-29T00:25:15.253Z,11.91
2023-09-29T00:27:41.787Z,11.87
2023-09-29T00:30:11.376Z,11.81
2023-09-29T00:32:38.280Z,11.81
2023-09-29T00:35:06.125Z,11.81
2023-09-29T00:37:32.782Z,11.83
2023-09-29T00:39:59.547Z,11.82
2023-09-29T00:42:26.456Z,11.79
2023-09-29T00:44:53.038Z,11.71
2023-09-29T00:47:21.412Z,11.63
2023-09-29T00:49:50.048Z,11.39
2023-09-29T00:52:18.393Z,11.22
2023-09-29T00:54:47.388Z,11.17
2023-09-29T00:57:14.990Z,11.22
2023-09-29T00:59:42.648Z,11.28
2023-09-29T01:02:11.866Z,11.23
2023-09-29T01:04:40.136Z,11.30
2023-09-29T01:07:08.418Z,11.33
2023-09-29T01:09:35.231Z,11.31
2023-09-29T01:12:01.891Z,11.22
2023-09-29T01:14:28.709Z,11.20
2023-09-29T01:16:55.528Z,11.18
2023-09-29T01:19:22.269Z,11.18
2023-09-29T01:21:49.136Z,11.18
2023-09-29T01:24:15.957Z,11.15
2023-09-29T01:26:46.093Z,11.06
2023-09-29T01:29:12.954Z,11.09
2023-09-29T01:31:40.434Z,11.20
2023-09-29T01:34:07.277Z,11.27
2023-09-29T01:36:34.420Z,11.28
2023-09-29T01:39:01.344Z,11.28
2023-09-29T01:41:28.540Z,11.24
2023-09-29T01:43:55.256Z,11.27
2023-09-29T01:46:21.972Z,11.28
2023-09-29T01:48:48.815Z,11.26
2023-09-29T01:51:15.424Z,11.20
2023-09-29T01:53:42.122Z,11.12
2023-09-29T01:56:09.192Z,11.08
2023-09-29T01:58:36.613Z,11.03
2023-09-29T02:01:03.292Z,11.03
2023-09-29T02:03:31.496Z,11.03
2023-09-29T02:05:58.967Z,11.04
2023-09-29T02:08:26.962Z,11.05
2023-09-29T02:10:54.028Z,11.05
2023-09-29T02:13:21.034Z,11.04
2023-09-29T02:15:47.725Z,11.06
2023-09-29T02:18:14.825Z,10.99
2023-09-29T02:20:48.273Z,10.94
2023-09-29T02:23:15.902Z,10.98
2023-09-29T02:25:43.455Z,11.04
2023-09-29T02:28:11.197Z,11.07
2023-09-29T02:30:38.145Z,11.12
2023-09-29T02:33:04.896Z,11.14
2023-09-29T02:35:32.202Z,11.09
2023-09-29T02:37:59.254Z,11.11
2023-09-29T02:40:25.960Z,11.17
2023-09-29T02:42:52.829Z,11.21
2023-09-29T02:45:19.528Z,11.27
2023-09-29T02:47:48.318Z,11.32
2023-09-29T02:50:15.696Z,11.27
2023-09-29T02:52:43.546Z,11.15
2023-09-29T02:55:14.367Z,11.10
2023-09-29T02:57:43.059Z,11.02
2023-09-29T03:00:19.823Z,10.96
2023-09-29T03:02:46.855Z,10.87
2023-09-29T03:05:17.003Z,10.83
2023-09-29T03:07:44.529Z,10.71
2023-09-29T03:10:17.766Z,10.66
2023-09-29T03:12:46.137Z,10.59
2023-09-29T03:15:16.951Z,10.46
2023-09-29T03:17:45.822Z,10.39
2023-09-29T03:20:13.253Z,10.35
2023-09-29T03:22:41.574Z,10.30
2023-09-29T03:25:10.960Z,10.33
2023-09-29T03:27:38.237Z,10.34
2023-09-29T03:30:09.800Z,10.30
2023-09-29T03:32:36.737Z,10.29
2023-09-29T03:35:06.020Z,10.26
2023-09-29T03:37:40.801Z,10.22
2023-09-29T03:40:09.933Z,10.23
2023-09-29T03:42:37.893Z,10.20
2023-09-29T03:45:07.103Z,10.11
2023-09-29T03:47:35.515Z,10.08
2023-09-29T03:50:03.175Z,10.09
2023-09-29T03:52:33.459Z,10.08
2023-09-29T03:55:00.411Z,10.06
2023-09-29T03:57:27.152Z,10.09
2023-09-29T03:59:53.899Z,10.12
2023-09-29T04:02:21.816Z,10.17
2023-09-29T04:04:48.808Z,10.19
2023-09-29T04:07:16.783Z,10.15
2023-09-29T04:09:43.533Z,10.09
2023-09-29T04:12:10.334Z,10.06
2023-09-29T04:14:37.046Z,10.09
2023-09-29T04:17:05.901Z,10.08
2023-09-29T04:19:33.610Z,10.12
2023-09-29T04:22:01.228Z,10.15
2023-09-29T04:24:28.444Z,10.15
2023-09-29T04:26:55.193Z,10.16
2023-09-29T04:29:22.090Z,10.19
2023-09-29T04:31:48.842Z,10.20
2023-09-29T04:34:15.491Z,10.25
2023-09-29T04:36:43.738Z,10.28
2023-09-29T04:39:10.769Z,10.33
2023-09-29T04:41:38.903Z,10.31
2023-09-29T04:44:06.897Z,10.31
2023-09-29T04:46:35.408Z,10.31
2023-09-29T04:49:05.129Z,10.29
2023-09-29T04:51:35.131Z,10.26
2023-09-29T04:54:01.872Z,10.22
2023-09-29T04:56:28.601Z,10.21
2023-09-29T04:58:55.650Z,10.15
2023-09-29T05:01:24.956Z,10.15
2023-09-29T05:03:54.645Z,10.17
2023-09-29T05:06:25.226Z,10.09
2023-09-29T05:08:52.672Z,10.01
2023-09-29T05:11:23.961Z,9.93
2023-09-29T05:13:51.874Z,9.83
2023-09-29T05:16:18.953Z,9.80
2023-09-29T05:18:46.380Z,9.79
2023-09-29T05:21:13.190Z,9.82
2023-09-29T05:23:40.082Z,9.85
2023-09-29T05:26:08.932Z,9.93
2023-09-29T05:28:36.437Z,9.89
2023-09-29T05:31:05.015Z,9.94
2023-09-29T05:33:32.648Z,9.92
2023-09-29T05:36:00.257Z,9.99
2023-09-29T05:38:27.099Z,10.09
2023-09-29T05:40:53.806Z,10.19
2023-09-29T05:43:20.960Z,10.29
2023-09-29T05:45:48.721Z,10.34
2023-09-29T05:48:16.439Z,10.34
2023-09-29T05:50:43.678Z,10.28
2023-09-29T05:53:11.418Z,10.28
2023-09-29T05:55:39.553Z,10.35
2023-09-29T05:58:06.515Z,10.47
2023-09-29T06:00:33.280Z,10.57
2023-09-29T06:03:03.428Z,10.73
2023-09-29T06:05:30.706Z,10.87
2023-09-29T06:07:58.884Z,11.01
2023-09-29T06:10:26.410Z,11.13
2023-09-29T06:12:53.196Z,11.24
2023-09-29T06:15:20.486Z,11.34
2023-09-29T06:17:47.462Z,11.47
2023-09-29T06:20:14.293Z,11.59
2023-09-29T06:22:41.082Z,11.74
2023-09-29T06:25:08.025Z,11.90
2023-09-29T06:27:34.567Z,12.05
2023-09-29T06:30:01.343Z,12.18
2023-09-29T06:32:28.142Z,12.33
2023-09-29T06:34:54.948Z,12.49
2023-09-29T06:37:21.775Z,12.65
2023-09-29T06:39:48.456Z,12.82
2023-09-29T06:42:15.218Z,12.99
2023-09-29T06:44:42.140Z,13.15
2023-09-29T06:47:08.883Z,13.31
2023-09-29T06:49:35.615Z,13.45
2023-09-29T06:52:02.324Z,13.59
2023-09-29T06:54:29.210Z,13.69
2023-09-29T06:56:55.889Z,13.79
2023-09-29T06:59:22.652Z,13.93
2023-09-29T07:01:49.472Z,14.07
2023-09-29T07:04:16.323Z,14.18
2023-09-29T07:06:43.345Z,14.39
2023-09-29T07:09:11.125Z,14.65
2023-09-29T07:11:41.357Z,15.12
2023-09-29T07:14:08.141Z,15.95
2023-09-29T07:16:34.850Z,17.12
2023-09-29T07:19:01.566Z,18.21
2023-09-29T07:21:28.277Z,19.29
2023-09-29T07:23:55.101Z,20.25
2023-09-29T07:26:21.944Z,21.12
2023-09-29T07:28:49.210Z,21.73
2023-09-29T07:31:15.905Z,22.35
2023-09-29T07:33:42.728Z,22.75
2023-09-29T07:36:09.459Z,23.10
2023-09-29T07:38:36.231Z,23.59
2023-09-29T07:41:06.017Z,23.72
2023-09-29T07:43:32.666Z,24.07
2023-09-29T07:45:59.355Z,24.61
2023-09-29T07:48:27.012Z,24.86
2023-09-29T07:50:53.907Z,24.76
2023-09-29T07:53:20.653Z,24.08
2023-09-29T07:55:47.313Z,24.43
2023-09-29T07:58:13.981Z,24.86
2023-09-29T08:00:40.689Z,24.92
2023-09-29T08:03:07.537Z,24.94
2023-09-29T08:05:34.366Z,24.79
2023-09-29T08:08:01.119Z,25.01
2023-09-29T08:10:27.778Z,24.93
2023-09-29T08:12:55.611Z,25.31
2023-09-29T08:15:23.222Z,25.56
2023-09-29T08:17:50.394Z,25.75
2023-09-29T08:20:18.512Z,25.80
2023-09-29T08:22:47.946Z,26.04
2023-09-29T08:25:15.798Z,26.00
2023-09-29T08:27:43.567Z,26.20
2023-09-29T08:30:11.758Z,26.53
2023-09-29T08:32:40.080Z,26.52
2023-09-29T08:35:07.388Z,26.68
2023-09-29T08:37:34.320Z,26.85
2023-09-29T08:40:01.053Z,27.13
2023-09-29T08:42:39.374Z,27.21
2023-09-29T08:45:11.500Z,27.32
2023-09-29T08:47:39.686Z,27.52
2023-09-29T08:50:10.823Z,27.35
2023-09-29T08:52:38.108Z,27.23
2023-09-29T08:55:05.157Z,27.24
2023-09-29T08:57:32.424Z,27.15
2023-09-29T09:00:01.592Z,27.02
2023-09-29T09:02:28.751Z,26.85
2023-09-29T09:04:55.508Z,27.13
2023-09-29T09:07:22.748Z,27.37
2023-09-29T09:09:55.066Z,27.58
2023-09-29T09:12:35.572Z,27.92
2023-09-29T09:15:08.703Z,28.06
2023-09-29T09:17:37.830Z,28.21
2023-09-29T09:20:05.254Z,28.32
2023-09-29T09:22:46.336Z,28.29
2023-09-29T09:25:16.276Z,28.28
2023-09-29T09:27:44.914Z,27.98
2023-09-29T09:30:25.949Z,27.57
2023-09-29T09:32:52.978Z,27.58
2023-09-29T09:35:30.517Z,27.85
2023-09-29T09:37:58.567Z,28.25
2023-09-29T09:40:26.386Z,28.66
2023-09-29T09:42:54.859Z,29.03
2023-09-29T09:45:30.609Z,29.18
2023-09-29T09:48:01.233Z,29.44
2023-09-29T09:50:32.086Z,29.68
2023-09-29T09:53:01.222Z,29.82
2023-09-29T09:56:00.940Z,29.43
2023-09-29T09:58:28.805Z,29.50
2023-09-29T10:00:57.039Z,29.82
2023-09-29T10:03:26.149Z,29.40
2023-09-29T10:05:54.824Z,29.53
2023-09-29T10:08:33.096Z,29.69
2023-09-29T10:11:13.459Z,29.74
2023-09-29T10:13:46.422Z,29.54
2023-09-29T10:16:24.390Z,29.45
2023-09-29T10:19:00.658Z,29.35
2023-09-29T10:21:40.942Z,29.43
2023-09-29T10:24:08.222Z,29.42
2023-09-29T10:26:50.537Z,29.47
2023-09-29T10:29:30.290Z,29.77
2023-09-29T10:32:15.177Z,29.69
2023-09-29T10:34:42.371Z,29.78
2023-09-29T10:37:12.464Z,29.87
2023-09-29T10:39:40.556Z,29.98
2023-09-29T10:42:15.071Z,30.03
2023-09-29T10:44:54.310Z,30.56
2023-09-29T10:47:50.579Z,30.78
2023-09-29T10:50:17.423Z,30.81
2023-09-29T10:52:44.250Z,30.73
2023-09-29T10:55:13.975Z,30.91
2023-09-29T10:57:43.417Z,31.08
2023-09-29T11:00:10.958Z,31.35
2023-09-29T11:02:38.569Z,31.25
2023-09-29T11:05:11.353Z,31.04
2023-09-29T11:07:52.428Z,30.77
2023-09-29T11:10:20.191Z,31.02
2023-09-29T11:12:50.095Z,31.26
2023-09-29T11:15:17.955Z,31.34
2023-09-29T11:17:46.568Z,31.61
2023-09-29T11:20:23.058Z,31.82
2023-09-29T11:23:02.404Z,32.07
2023-09-29T11:25:29.127Z,32.26
2023-09-29T11:27:57.216Z,32.06
2023-09-29T11:30:26.186Z,32.01
2023-09-29T11:32:54.153Z,32.14
2023-09-29T11:35:22.672Z,32.32
2023-09-29T11:37:49.400Z,32.58
2023-09-29T11:40:17.777Z,32.70
2023-09-29T11:42:46.547Z,32.97
2023-09-29T11:45:13.654Z,32.88
2023-09-29T11:47:41.888Z,32.81
2023-09-29T11:50:10.197Z,32.84
2023-09-29T11:52:40.769Z,32.60
2023-09-29T11:55:10.169Z,32.55
2023-09-29T11:57:38.535Z,32.59
2023-09-29T12:00:10.275Z,32.69
2023-09-29T12:02:37.966Z,32.80
2023-09-29T12:05:05.650Z,32.92
2023-09-29T12:07:33.286Z,32.86
2023-09-29T12:10:00.456Z,32.54
2023-09-29T12:12:28.293Z,32.06
2023-09-29T12:14:55.106Z,32.04
2023-09-29T12:17:21.964Z,31.79
2023-09-29T12:19:48.667Z,31.61
2023-09-29T12:22:15.419Z,31.68
2023-09-29T12:24:42.117Z,31.63
2023-09-29T12:27:11.753Z,31.54
2023-09-29T12:29:38.463Z,31.41
2023-09-29T12:32:05.183Z,31.35
2023-09-29T12:34:33.860Z,31.42
2023-09-29T12:37:01.063Z,31.09
2023-09-29T12:39:28.006Z,30.50
2023-09-29T12:41:54.967Z,30.67
2023-09-29T12:44:21.814Z,30.82
2023-09-29T12:46:48.474Z,30.78
2023-09-29T12:49:15.211Z,30.73
2023-09-29T12:51:53.609Z,30.57
2023-09-29T12:54:26.635Z,30.28
2023-09-29T12:57:01.338Z,30.19
2023-09-29T12:59:30.919Z,30.38
2023-09-29T13:01:57.706Z,30.60
2023-09-29T13:04:27.715Z,30.78
2023-09-29T13:06:54.462Z,30.67
2023-09-29T13:09:22.178Z,30.61
2023-09-29T13:11:49.916Z,30.52
2023-09-29T13:14:16.604Z,30.32
2023-09-29T13:16:43.755Z,30.20
2023-09-29T13:19:10.804Z,30.14
2023-09-29T13:21:37.537Z,30.25
2023-09-29T13:24:04.853Z,30.39
2023-09-29T13:26:31.670Z,30.39
2023-09-29T13:28:58.435Z,30.38
2023-09-29T13:31:25.097Z,30.37
2023-09-29T13:33:54.831Z,30.41
2023-09-29T13:36:21.784Z,30.50
2023-09-29T13:38:49.420Z,30.34
2023-09-29T13:41:16.142Z,30.21
2023-09-29T13:43:44.406Z,30.13
2023-09-29T13:46:11.148Z,30.10
2023-09-29T13:48:38.776Z,30.10
2023-09-29T13:51:07.501Z,30.04
2023-09-29T13:53:35.667Z,29.96
2023-09-29T13:56:07.159Z,29.88
2023-09-29T13:58:34.327Z,29.80
2023-09-29T14:01:01.242Z,29.61
2023-09-29T14:03:28.029Z,29.45
2023-09-29T14:05:55.298Z,29.36
2023-09-29T14:08:22.249Z,29.29
2023-09-29T14:10:49.131Z,29.42
2023-09-29T14:13:17.331Z,29.47
2023-09-29T14:15:44.024Z,29.44
2023-09-29T14:18:10.810Z,29.47
2023-09-29T14:20:38.283Z,29.44
2023-09-29T14:23:05.752Z,29.54
2023-09-29T14:25:32.481Z,29.48
2023-09-29T14:27:59.228Z,29.41
2023-09-29T14:30:26.220Z,29.40
2023-09-29T14:32:54.989Z,29.35
2023-09-29T14:35:22.693Z,29.20
2023-09-29T14:37:55.574Z,29.16
2023-09-29T14:40:22.682Z,29.05
2023-09-29T14:42:49.865Z,28.98
2023-09-29T14:45:16.526Z,28.90
2023-09-29T14:47:43.258Z,28.76
2023-09-29T14:50:10.388Z,28.67
2023-09-29T14:52:37.129Z,28.47
2023-09-29T14:55:07.171Z,28.25
2023-09-29T14:57:34.247Z,28.21
2023-09-29T15:00:01.946Z,28.28
2023-09-29T15:02:28.789Z,28.22
2023-09-29T15:04:57.334Z,27.98
2023-09-29T15:07:26.145Z,27.91
2023-09-29T15:09:53.221Z,27.74
2023-09-29T15:12:21.915Z,27.63
2023-09-29T15:14:50.486Z,27.57
2023-09-29T15:17:17.181Z,27.46
2023-09-29T15:19:44.350Z,27.46
2023-09-29T15:22:11.374Z,27.39
2023-09-29T15:24:41.131Z,27.42
2023-09-29T15:27:07.862Z,27.29
2023-09-29T15:29:34.561Z,27.32
2023-09-29T15:32:01.220Z,27.30
2023-09-29T15:34:28.018Z,27.26
2023-09-29T15:36:54.746Z,27.21
2023-09-29T15:39:21.514Z,27.07
2023-09-29T15:41:48.789Z,26.89
2023-09-29T15:44:16.886Z,26.71
2023-09-29T15:46:45.828Z,26.48
2023-09-29T15:49:15.603Z,26.16
2023-09-29T15:51:42.237Z,25.97
2023-09-29T15:54:08.955Z,25.67
2023-09-29T15:56:35.704Z,25.38
2023-09-29T15:59:02.984Z,25.16
2023-09-29T16:01:29.754Z,24.91
2023-09-29T16:03:56.748Z,24.73
2023-09-29T16:06:23.857Z,24.67
2023-09-29T16:08:50.575Z,24.61
2023-09-29T16:11:18.081Z,24.52
2023-09-29T16:13:45.322Z,24.39
2023-09-29T16:16:12.065Z,24.19
2023-09-29T16:18:38.853Z,24.11
2023-09-29T16:21:08.115Z,24.03
2023-09-29T16:23:34.837Z,23.90
2023-09-29T16:26:01.529Z,23.77
2023-09-29T16:28:28.186Z,23.67
2023-09-29T16:30:56.278Z,23.52
2023-09-29T16:33:23.109Z,23.32
2023-09-29T16:35:49.840Z,23.15
2023-09-29T16:38:16.581Z,22.84
2023-09-29T16:40:44.091Z,22.41
2023-09-29T16:43:12.047Z,22.16
2023-09-29T16:45:38.730Z,22.04
2023-09-29T16:48:05.782Z,21.83
2023-09-29T16:50:33.800Z,21.69
2023-09-29T16:53:00.544Z,21.56
2023-09-29T16:55:27.230Z,21.42
2023-09-29T16:57:53.910Z,21.29
2023-09-29T17:00:20.762Z,21.15
2023-09-29T17:02:47.543Z,21.02
2023-09-29T17:05:15.622Z,20.91
2023-09-29T17:07:42.280Z,20.80
2023-09-29T17:10:09.464Z,20.70
2023-09-29T17:12:36.211Z,20.53
2023-09-29T17:15:03.554Z,20.29
2023-09-29T17:17:30.533Z,20.10
2023-09-29T17:19:57.291Z,19.95
2023-09-29T17:22:24.918Z,19.79
2023-09-29T17:24:51.756Z,19.65
2023-09-29T17:27:19.278Z,19.52
2023-09-29T17:29:46.055Z,19.37
2023-09-29T17:32:12.883Z,19.22
2023-09-29T17:34:39.586Z,19.11
2023-09-29T17:37:06.295Z,19.03
2023-09-29T17:39:33.167Z,18.95
2023-09-29T17:42:02.331Z,18.83
2023-09-29T17:44:29.122Z,18.73
2023-09-29T17:46:55.811Z,18.66
2023-09-29T17:49:22.545Z,18.57
2023-09-29T17:51:49.267Z,18.53
2023-09-29T17:54:16.004Z,18.51
2023-09-29T17:56:42.729Z,18.40
2023-09-29T17:59:09.394Z,18.31
2023-09-29T18:01:36.076Z,18.22
2023-09-29T18:04:03.782Z,18.15
2023-09-29T18:06:32.459Z,18.06
2023-09-29T18:09:00.003Z,18.02
2023-09-29T18:11:28.007Z,17.97
2023-09-29T18:13:56.529Z,17.93
2023-09-29T18:16:23.523Z,17.88
2023-09-29T18:18:50.325Z,17.58
2023-09-29T18:21:17.315Z,17.53
2023-09-29T18:23:44.049Z,17.53
2023-09-29T18:26:10.619Z,17.52
2023-09-29T18:28:37.352Z,17.45
2023-09-29T18:31:08.358Z,17.41
2023-09-29T18:33:35.440Z,17.38
2023-09-29T18:36:04.225Z,17.32
2023-09-29T18:38:31.301Z,17.31
2023-09-29T18:40:58.147Z,17.29
2023-09-29T18:43:24.805Z,17.28
2023-09-29T18:45:59.010Z,17.27
2023-09-29T18:48:25.728Z,17.30
2023-09-29T18:50:53.294Z,17.32
2023-09-29T18:53:19.987Z,17.34
2023-09-29T18:55:46.981Z,17.33
2023-09-29T18:58:13.650Z,17.32
2023-09-29T19:00:40.870Z,17.35
2023-09-29T19:03:07.759Z,17.36
2023-09-29T19:05:36.256Z,17.29
2023-09-29T19:08:02.966Z,17.28
2023-09-29T19:10:29.524Z,17.27
2023-09-29T19:12:56.158Z,17.21
2023-09-29T19:15:22.700Z,17.18
2023-09-29T19:17:49.686Z,17.17
2023-09-29T19:20:16.786Z,17.09
2023-09-29T19:22:43.621Z,17.05
2023-09-29T19:25:10.461Z,16.98
2023-09-29T19:27:37.219Z,16.98
2023-09-29T19:30:04.584Z,16.96
2023-09-29T19:32:31.659Z,16.95
2023-09-29T19:34:58.337Z,16.86
2023-09-29T19:37:25.563Z,16.86
2023-09-29T19:39:52.270Z,16.89
2023-09-29T19:42:21.208Z,16.90
2023-09-29T19:44:49.399Z,16.88
2023-09-29T19:47:16.173Z,16.85
2023-09-29T19:49:42.813Z,16.85
2023-09-29T19:52:09.560Z,16.81
2023-09-29T19:54:36.394Z,16.83
2023-09-29T19:57:03.175Z,16.83
2023-09-29T19:59:29.846Z,16.79
2023-09-29T20:01:56.442Z,16.79
2023-09-29T20:04:23.261Z,16.81
2023-09-29T20:06:49.999Z,16.80
2023-09-29T20:09:17.571Z,16.87
2023-09-29T20:11:44.930Z,16.88
2023-09-29T20:14:11.677Z,16.86
2023-09-29T20:16:38.421Z,16.86
2023-09-29T20:19:05.247Z,16.81
2023-09-29T20:21:32.467Z,16.72
2023-09-29T20:24:01.988Z,16.71
2023-09-29T20:26:34.808Z,16.76
2023-09-29T20:29:01.468Z,16.76
2023-09-29T20:31:28.047Z,16.73
2023-09-29T20:33:57.214Z,16.75
2023-09-29T20:36:24.143Z,16.80
2023-09-29T20:38:50.803Z,16.84
2023-09-29T20:41:17.430Z,16.83
2023-09-29T20:43:44.251Z,16.84
2023-09-29T20:46:11.316Z,16.84
2023-09-29T20:48:38.366Z,16.86
2023-09-29T20:51:12.682Z,16.86
2023-09-29T20:53:39.939Z,16.90
2023-09-29T20:56:10.737Z,16.92
2023-09-29T20:58:37.458Z,16.98
2023-09-29T21:01:04.268Z,17.04
2023-09-29T21:03:31.130Z,17.11
2023-09-29T21:05:57.955Z,17.13
2023-09-29T21:08:24.691Z,17.12
2023-09-29T21:10:55.116Z,17.16
2023-09-29T21:13:21.873Z,17.25
2023-09-29T21:15:48.644Z,17.32
2023-09-29T21:18:15.507Z,17.36
2023-09-29T21:20:42.197Z,17.44
2023-09-29T21:23:08.773Z,17.51
2023-09-29T21:25:35.623Z,17.36
2023-09-29T21:28:05.509Z,17.23
2023-09-29T21:30:32.343Z,17.20
2023-09-29T21:32:59.188Z,17.23
2023-09-29T21:35:25.953Z,17.31
2023-09-29T21:37:52.498Z,17.33
2023-09-29T21:40:20.538Z,17.33
2023-09-29T21:42:47.296Z,17.36
2023-09-29T21:45:14.441Z,17.35
2023-09-29T21:47:41.273Z,17.30
2023-09-29T21:50:08.369Z,17.26
2023-09-29T21:52:35.460Z,17.21
2023-09-29T21:55:02.536Z,17.27
2023-09-29T21:57:29.392Z,17.22
2023-09-29T21:59:57.402Z,17.19
2023-09-29T22:02:24.455Z,17.12
2023-09-29T22:04:51.148Z,17.11
2023-09-29T22:07:17.896Z,16.97
2023-09-29T22:09:44.579Z,16.76
2023-09-29T22:12:11.543Z,16.71
2023-09-29T22:14:38.917Z,16.68
2023-09-29T22:17:05.599Z,16.73
2023-09-29T22:19:32.109Z,16.88
2023-09-29T22:21:58.790Z,17.10
2023-09-29T22:24:25.314Z,17.33
2023-09-29T22:26:52.353Z,17.57
2023-09-29T22:29:19.049Z,17.91
2023-09-29T22:31:45.685Z,18.18
2023-09-29T22:34:12.488Z,18.38
2023-09-29T22:36:39.262Z,18.60
2023-09-29T22:39:08.069Z,18.78
2023-09-29T22:41:35.026Z,18.91
2023-09-29T22:44:02.477Z,19.01
2023-09-29T22:46:29.260Z,19.07
2023-09-29T22:48:56.306Z,19.12
2023-09-29T22:51:23.134Z,19.18
2023-09-29T22:53:49.823Z,19.23
2023-09-29T22:56:16.492Z,19.26
2023-09-29T22:58:43.433Z,19.31
2023-09-29T23:01:10.430Z,19.31
2023-09-29T23:03:37.294Z,19.32
2023-09-29T23:06:04.393Z,19.34
2023-09-29T23:08:32.754Z,19.33
2023-09-29T23:10:59.839Z,19.31
2023-09-29T23:13:27.049Z,19.33
2023-09-29T23:15:54.103Z,19.31
2023-09-29T23:18:21.419Z,19.29
2023-09-29T23:20:48.314Z,19.25
2023-09-29T23:23:15.155Z,19.12
2023-09-29T23:25:42.993Z,19.07
2023-09-29T23:28:09.826Z,19.08
2023-09-29T23:30:37.059Z,19.07
2023-09-29T23:33:05.157Z,19.00
2023-09-29T23:35:32.257Z,19.01
2023-09-29T23:37:59.346Z,19.01
2023-09-29T23:40:26.094Z,19.02
2023-09-29T23:42:52.777Z,18.98
2023-09-29T23:45:19.323Z,18.93
2023-09-29T23:47:48.275Z,18.78
2023-09-29T23:50:15.089Z,18.59
2023-09-29T23:52:41.780Z,18.50
2023-09-29T23:55:09.939Z,18.34
2023-09-29T23:57:37.946Z,18.23
